sensor_id;sensor_type;location;lat;lon;timestamp;pressure;altitude;pressure_sealevel;temperature;humidity
9764;BME280;4921;43.214;27.936;2023-08-30T00:01:05;99955.75;;;27.66;100.00
9764;BME280;4921;43.214;27.936;2023-08-30T00:03:32;99955.66;;;27.61;100.00
9764;BME280;4921;43.214;27.936;2023-08-30T00:06:02;99942.59;;;27.53;100.00
9764;BME280;4921;43.214;27.936;2023-08-30T00:08:30;99953.09;;;27.71;100.00
9764;BME280;4921;43.214;27.936;2023-08-30T00:10:57;99954.44;;;27.69;100.00
9764;BME280;4921;43.214;27.936;2023-08-30T00:13:25;99958.75;;;27.70;100.00
9764;BME280;4921;43.214;27.936;2023-08-30T00:15:52;99959.84;;;27.69;100.00
9764;BME280;4921;43.214;27.936;2023-08-30T00:18:19;99957.75;;;27.76;100.00
9764;BME280;4921;43.214;27.936;2023-08-30T00:20:47;99961.84;;;27.78;100.00
9764;BME280;4921;43.214;27.936;2023-08-30T00:23:14;99950.78;;;27.80;100.00
9764;BME280;4921;43.214;27.936;2023-08-30T00:25:42;99951.94;;;27.84;100.00
9764;BME280;4921;43.214;27.936;2023-08-30T00:28:09;99955.19;;;27.86;100.00
9764;BME280;4921;43.214;27.936;2023-08-30T00:30:37;99956.25;;;27.85;100.00
9764;BME280;4921;43.214;27.936;2023-08-30T00:33:04;99950.59;;;27.86;100.00
9764;BME280;4921;43.214;27.936;2023-08-30T00:35:31;99946.53;;;27.84;100.00
9764;BME280;4921;43.214;27.936;2023-08-30T00:37:58;99944.81;;;27.78;100.00
9764;BME280;4921;43.214;27.936;2023-08-30T00:40:25;99945.69;;;27.83;100.00
9764;BME280;4921;43.214;27.936;2023-08-30T00:42:54;99944.06;;;27.82;100.00
9764;BME280;4921;43.214;27.936;2023-08-30T00:45:21;99946.38;;;27.74;100.00
9764;BME280;4921;43.214;27.936;2023-08-30T00:47:50;99941.47;;;27.71;100.00
9764;BME280;4921;43.214;27.936;2023-08-30T00:50:17;99939.84;;;27.70;100.00
9764;BME280;4921;43.214;27.936;2023-08-30T00:52:44;99940.75;;;27.75;100.00
9764;BME280;4921;43.214;27.936;2023-08-30T00:55:11;99942.66;;;27.80;100.00
9764;BME280;4921;43.214;27.936;2023-08-30T00:57:39;99942.09;;;27.78;100.00
9764;BME280;4921;43.214;27.936;2023-08-30T01:00:07;99942.53;;;27.70;100.00
9764;BME280;4921;43.214;27.936;2023-08-30T01:02:36;99947.06;;;27.64;100.00
9764;BME280;4921;43.214;27.936;2023-08-30T01:05:05;99935.00;;;27.72;100.00
9764;BME280;4921;43.214;27.936;2023-08-30T01:07:32;99943.28;;;27.65;100.00
9764;BME280;4921;43.214;27.936;2023-08-30T01:09:59;99939.75;;;27.65;100.00
9764;BME280;4921;43.214;27.936;2023-08-30T01:12:30;99935.03;;;27.55;100.00
9764;BME280;4921;43.214;27.936;2023-08-30T01:15:06;99939.06;;;27.53;100.00
9764;BME280;4921;43.214;27.936;2023-08-30T01:17:35;99912.22;;;27.46;100.00
9764;BME280;4921;43.214;27.936;2023-08-30T01:20:05;99944.41;;;27.69;100.00
9764;BME280;4921;43.214;27.936;2023-08-30T01:22:42;99949.34;;;27.72;100.00
9764;BME280;4921;43.214;27.936;2023-08-30T01:25:17;99959.88;;;27.74;100.00
9764;BME280;4921;43.214;27.936;2023-08-30T01:27:49;99952.00;;;27.51;100.00
9764;BME280;4921;43.214;27.936;2023-08-30T01:30:18;99953.69;;;27.57;100.00
9764;BME280;4921;43.214;27.936;2023-08-30T01:32:46;99951.91;;;27.62;100.00
9764;BME280;4921;43.214;27.936;2023-08-30T01:35:15;99959.19;;;27.62;100.00
9764;BME280;4921;43.214;27.936;2023-08-30T01:37:46;99958.28;;;27.56;100.00
9764;BME280;4921;43.214;27.936;2023-08-30T01:40:13;99958.09;;;27.63;100.00
9764;BME280;4921;43.214;27.936;2023-08-30T01:42:43;99950.91;;;27.68;100.00
9764;BME280;4921;43.214;27.936;2023-08-30T01:45:14;99953.09;;;27.71;100.00
9764;BME280;4921;43.214;27.936;2023-08-30T01:47:42;99951.78;;;27.74;100.00
9764;BME280;4921;43.214;27.936;2023-08-30T01:50:11;99962.84;;;27.72;100.00
9764;BME280;4921;43.214;27.936;2023-08-30T01:52:39;99959.66;;;27.75;100.00
9764;BME280;4921;43.214;27.936;2023-08-30T01:55:08;99944.09;;;27.66;100.00
9764;BME280;4921;43.214;27.936;2023-08-30T01:57:35;99959.66;;;27.75;100.00
9764;BME280;4921;43.214;27.936;2023-08-30T02:00:03;99949.97;;;27.79;100.00
9764;BME280;4921;43.214;27.936;2023-08-30T02:02:33;99952.16;;;27.82;100.00
9764;BME280;4921;43.214;27.936;2023-08-30T02:05:00;99946.19;;;27.80;100.00
9764;BME280;4921;43.214;27.936;2023-08-30T02:10:16;99949.22;;;27.84;100.00
9764;BME280;4921;43.214;27.936;2023-08-30T02:12:48;99955.19;;;27.86;100.00
9764;BME280;4921;43.214;27.936;2023-08-30T02:15:16;99950.59;;;27.86;100.00
9764;BME280;4921;43.214;27.936;2023-08-30T02:17:45;99956.50;;;27.83;100.00
9764;BME280;4921;43.214;27.936;2023-08-30T02:20:13;99952.13;;;27.77;100.00
9764;BME280;4921;43.214;27.936;2023-08-30T02:22:40;99953.44;;;27.75;100.00
9764;BME280;4921;43.214;27.936;2023-08-30T02:25:07;99955.88;;;27.76;100.00
9764;BME280;4921;43.214;27.936;2023-08-30T02:27:35;99949.16;;;27.79;100.00
9764;BME280;4921;43.214;27.936;2023-08-30T02:30:03;99954.81;;;27.77;100.00
9764;BME280;4921;43.214;27.936;2023-08-30T02:32:30;99946.94;;;27.76;100.00
9764;BME280;4921;43.214;27.936;2023-08-30T02:34:59;99953.44;;;27.75;100.00
9764;BME280;4921;43.214;27.936;2023-08-30T02:37:26;99931.81;;;27.75;100.00
9764;BME280;4921;43.214;27.936;2023-08-30T02:39:53;99928.53;;;27.73;100.00
9764;BME280;4921;43.214;27.936;2023-08-30T02:42:20;99939.84;;;27.70;100.00
9764;BME280;4921;43.214;27.936;2023-08-30T02:44:47;99939.75;;;27.65;100.00
9764;BME280;4921;43.214;27.936;2023-08-30T02:47:14;99942.41;;;27.60;100.00
9764;BME280;4921;43.214;27.936;2023-08-30T02:49:41;99940.19;;;27.57;100.00
9764;BME280;4921;43.214;27.936;2023-08-30T02:52:09;99936.34;;;27.53;100.00
9764;BME280;4921;43.214;27.936;2023-08-30T02:54:36;99944.47;;;27.53;100.00
9764;BME280;4921;43.214;27.936;2023-08-30T02:57:03;99942.25;;;27.50;100.00
9764;BME280;4921;43.214;27.936;2023-08-30T02:59:30;99947.34;;;27.46;100.00
9764;BME280;4921;43.214;27.936;2023-08-30T03:01:57;99943.03;;;27.45;100.00
9764;BME280;4921;43.214;27.936;2023-08-30T03:04:24;99937.03;;;27.43;100.00
9764;BME280;4921;43.214;27.936;2023-08-30T03:06:51;99942.38;;;27.38;100.00
9764;BME280;4921;43.214;27.936;2023-08-30T03:09:19;99932.88;;;27.36;100.00
9764;BME280;4921;43.214;27.936;2023-08-30T03:11:46;99936.53;;;27.30;100.00
9764;BME280;4921;43.214;27.936;2023-08-30T03:14:13;99931.03;;;27.25;100.00
9764;BME280;4921;43.214;27.936;2023-08-30T03:16:41;99932.44;;;27.27;100.00
9764;BME280;4921;43.214;27.936;2023-08-30T03:19:10;99926.72;;;27.24;100.00
9764;BME280;4921;43.214;27.936;2023-08-30T03:21:37;99937.53;;;27.24;100.00
9764;BME280;4921;43.214;27.936;2023-08-30T03:24:04;99931.31;;;27.23;100.00
9764;BME280;4921;43.214;27.936;2023-08-30T03:26:33;99935.31;;;27.20;100.00
9764;BME280;4921;43.214;27.936;2023-08-30T03:29:00;99936.63;;;27.18;100.00
9764;BME280;4921;43.214;27.936;2023-08-30T03:31:27;99935.97;;;27.11;100.00
9764;BME280;4921;43.214;27.936;2023-08-30T03:33:53;99938.25;;;27.02;100.00
9764;BME280;4921;43.214;27.936;2023-08-30T03:36:20;99935.25;;;26.99;100.00
9764;BME280;4921;43.214;27.936;2023-08-30T03:38:47;99942.91;;;27.07;100.00
9764;BME280;4921;43.214;27.936;2023-08-30T03:41:14;99939.16;;;27.08;100.00
9764;BME280;4921;43.214;27.936;2023-08-30T03:43:43;99938.66;;;27.11;100.00
9764;BME280;4921;43.214;27.936;2023-08-30T03:46:10;99948.72;;;26.99;100.00
9764;BME280;4921;43.214;27.936;2023-08-30T03:48:37;99946.19;;;26.92;100.00
9764;BME280;4921;43.214;27.936;2023-08-30T03:51:04;99947.34;;;26.96;100.00
9764;BME280;4921;43.214;27.936;2023-08-30T03:53:31;99952.56;;;27.03;100.00
9764;BME280;4921;43.214;27.936;2023-08-30T03:55:58;99955.53;;;27.01;100.00
9764;BME280;4921;43.214;27.936;2023-08-30T03:58:25;99952.22;;;26.83;100.00
9764;BME280;4921;43.214;27.936;2023-08-30T04:00:54;99938.09;;;26.76;100.00
9764;BME280;4921;43.214;27.936;2023-08-30T04:03:21;99954.41;;;26.69;100.00
9764;BME280;4921;43.214;27.936;2023-08-30T04:05:54;99950.03;;;26.80;100.00
9764;BME280;4921;43.214;27.936;2023-08-30T04:08:21;99963.69;;;26.73;100.00
9764;BME280;4921;43.214;27.936;2023-08-30T04:10:52;99959.44;;;26.77;100.00
9764;BME280;4921;43.214;27.936;2023-08-30T04:13:19;99958.94;;;26.80;100.00
9764;BME280;4921;43.214;27.936;2023-08-30T04:15:47;99954.28;;;26.76;100.00
9764;BME280;4921;43.214;27.936;2023-08-30T04:18:16;99956.03;;;26.70;100.00
9764;BME280;4921;43.214;27.936;2023-08-30T04:20:44;99957.19;;;26.74;100.00
9764;BME280;4921;43.214;27.936;2023-08-30T04:23:11;99956.16;;;26.75;100.00
9764;BME280;4921;43.214;27.936;2023-08-30T04:25:38;99964.13;;;26.70;100.00
9764;BME280;4921;43.214;27.936;2023-08-30T04:28:05;99974.00;;;26.65;100.00
9764;BME280;4921;43.214;27.936;2023-08-30T04:30:32;99968.03;;;26.63;100.00
9764;BME280;4921;43.214;27.936;2023-08-30T04:33:00;99970.63;;;26.58;100.00
9764;BME280;4921;43.214;27.936;2023-08-30T04:35:30;99978.84;;;26.63;100.00
9764;BME280;4921;43.214;27.936;2023-08-30T04:37:58;99979.41;;;26.65;100.00
9764;BME280;4921;43.214;27.936;2023-08-30T04:40:25;99985.94;;;26.69;100.00
9764;BME280;4921;43.214;27.936;2023-08-30T04:42:52;99987.22;;;26.78;100.00
9764;BME280;4921;43.214;27.936;2023-08-30T04:45:19;99986.72;;;26.81;100.00
9764;BME280;4921;43.214;27.936;2023-08-30T04:47:46;99988.13;;;26.83;100.00
9764;BME280;4921;43.214;27.936;2023-08-30T04:50:13;99984.56;;;26.94;100.00
9764;BME280;4921;43.214;27.936;2023-08-30T04:52:41;99988.00;;;27.06;100.00
9764;BME280;4921;43.214;27.936;2023-08-30T04:55:09;99979.91;;;27.06;100.00
9764;BME280;4921;43.214;27.936;2023-08-30T04:57:36;99979.56;;;27.03;100.00
9764;BME280;4921;43.214;27.936;2023-08-30T05:00:04;99978.41;;;27.15;100.00
9764;BME280;4921;43.214;27.936;2023-08-30T05:02:32;99979.91;;;27.23;100.00
9764;BME280;4921;43.214;27.936;2023-08-30T05:04:59;99984.06;;;27.14;100.00
9764;BME280;4921;43.214;27.936;2023-08-30T05:07:26;99982.78;;;27.16;100.00
9764;BME280;4921;43.214;27.936;2023-08-30T05:09:54;99979.66;;;27.08;100.00
9764;BME280;4921;43.214;27.936;2023-08-30T05:12:21;99991.44;;;27.18;100.00
9764;BME280;4921;43.214;27.936;2023-08-30T05:14:48;99988.41;;;27.32;100.00
9764;BME280;4921;43.214;27.936;2023-08-30T05:17:15;99990.81;;;27.45;100.00
9764;BME280;4921;43.214;27.936;2023-08-30T05:19:42;99993.34;;;27.51;100.00
9764;BME280;4921;43.214;27.936;2023-08-30T05:22:09;99997.25;;;27.27;100.00
9764;BME280;4921;43.214;27.936;2023-08-30T05:24:36;99998.31;;;27.26;100.00
9764;BME280;4921;43.214;27.936;2023-08-30T05:27:05;99993.19;;;27.41;100.00
9764;BME280;4921;43.214;27.936;2023-08-30T05:29:32;99994.78;;;27.59;100.00
9764;BME280;4921;43.214;27.936;2023-08-30T05:31:59;99999.81;;;27.67;100.00
9764;BME280;4921;43.214;27.936;2023-08-30T05:34:26;99993.41;;;27.73;100.00
9764;BME280;4921;43.214;27.936;2023-08-30T05:36:53;100001.50;;;27.73;100.00
9764;BME280;4921;43.214;27.936;2023-08-30T05:39:20;100009.97;;;27.60;100.00
9764;BME280;4921;43.214;27.936;2023-08-30T05:41:50;100006.75;;;27.63;100.00
9764;BME280;4921;43.214;27.936;2023-08-30T05:44:19;100007.31;;;27.65;100.00
9764;BME280;4921;43.214;27.936;2023-08-30T05:46:46;100005.00;;;27.73;100.00
9764;BME280;4921;43.214;27.936;2023-08-30T05:49:12;100007.34;;;27.86;100.00
9764;BME280;4921;43.214;27.936;2023-08-30T05:51:39;100007.63;;;27.85;100.00
9764;BME280;4921;43.214;27.936;2023-08-30T05:54:07;100011.97;;;27.86;100.00
9764;BME280;4921;43.214;27.936;2023-08-30T05:56:33;100003.63;;;27.71;100.00
9764;BME280;4921;43.214;27.936;2023-08-30T05:59:00;100008.78;;;27.72;100.00
9764;BME280;4921;43.214;27.936;2023-08-30T06:01:29;100005.47;;;27.87;100.00
9764;BME280;4921;43.214;27.936;2023-08-30T06:03:56;100006.69;;;27.96;100.00
9764;BME280;4921;43.214;27.936;2023-08-30T06:06:23;100014.66;;;28.03;100.00
9764;BME280;4921;43.214;27.936;2023-08-30T06:08:50;100020.13;;;27.91;100.00
9764;BME280;4921;43.214;27.936;2023-08-30T06:11:17;100020.38;;;27.89;100.00
9764;BME280;4921;43.214;27.936;2023-08-30T06:13:43;100018.09;;;27.98;100.00
9764;BME280;4921;43.214;27.936;2023-08-30T06:16:11;100017.69;;;27.89;100.00
9764;BME280;4921;43.214;27.936;2023-08-30T06:18:39;100019.69;;;27.77;100.00
9764;BME280;4921;43.214;27.936;2023-08-30T06:21:07;100026.22;;;27.81;100.00
9764;BME280;4921;43.214;27.936;2023-08-30T06:23:34;100020.69;;;27.93;100.00
9764;BME280;4921;43.214;27.936;2023-08-30T06:26:00;100025.09;;;27.77;100.00
9764;BME280;4921;43.214;27.936;2023-08-30T06:28:28;100030.72;;;27.76;100.00
9764;BME280;4921;43.214;27.936;2023-08-30T06:30:55;100028.75;;;27.71;100.00
9764;BME280;4921;43.214;27.936;2023-08-30T06:33:23;100032.03;;;27.73;100.00
9764;BME280;4921;43.214;27.936;2023-08-30T06:35:51;100037.38;;;27.68;100.00
9764;BME280;4921;43.214;27.936;2023-08-30T06:38:19;100036.00;;;27.66;100.00
9764;BME280;4921;43.214;27.936;2023-08-30T06:40:46;100032.81;;;27.69;100.00
9764;BME280;4921;43.214;27.936;2023-08-30T06:43:13;100022.44;;;27.82;100.00
9764;BME280;4921;43.214;27.936;2023-08-30T06:45:41;100046.22;;;27.97;100.00
9764;BME280;4921;43.214;27.936;2023-08-30T06:48:08;100044.13;;;28.04;100.00
9764;BME280;4921;43.214;27.936;2023-08-30T06:50:35;100049.34;;;28.11;100.00
9764;BME280;4921;43.214;27.936;2023-08-30T06:53:03;100040.50;;;28.15;100.00
9764;BME280;4921;43.214;27.936;2023-08-30T06:55:31;100051.25;;;28.32;100.00
9764;BME280;4921;43.214;27.936;2023-08-30T06:57:59;100050.56;;;28.41;100.00
9764;BME280;4921;43.214;27.936;2023-08-30T07:00:26;100056.66;;;28.53;100.00
9764;BME280;4921;43.214;27.936;2023-08-30T07:02:53;100057.75;;;28.52;100.00
9764;BME280;4921;43.214;27.936;2023-08-30T07:05:20;100060.94;;;28.49;100.00
9764;BME280;4921;43.214;27.936;2023-08-30T07:07:47;100056.66;;;28.53;100.00
9764;BME280;4921;43.214;27.936;2023-08-30T07:10:15;100063.56;;;28.61;100.00
9764;BME280;4921;43.214;27.936;2023-08-30T07:12:42;100057.47;;;28.54;100.00
9764;BME280;4921;43.214;27.936;2023-08-30T07:15:10;100063.72;;;28.54;100.00
9764;BME280;4921;43.214;27.936;2023-08-30T07:17:37;100061.84;;;28.33;100.00
9764;BME280;4921;43.214;27.936;2023-08-30T07:20:08;100069.59;;;28.46;100.00
9764;BME280;4921;43.214;27.936;2023-08-30T07:22:36;100059.81;;;28.45;100.00
9764;BME280;4921;43.214;27.936;2023-08-30T07:25:05;100058.38;;;28.38;100.00
9764;BME280;4921;43.214;27.936;2023-08-30T07:27:34;100064.97;;;28.47;100.00
9764;BME280;4921;43.214;27.936;2023-08-30T07:30:01;100062.78;;;28.44;100.00
9764;BME280;4921;43.214;27.936;2023-08-30T07:32:29;100074.56;;;28.54;100.00
9764;BME280;4921;43.214;27.936;2023-08-30T07:34:56;100069.69;;;28.56;100.00
9764;BME280;4921;43.214;27.936;2023-08-30T07:37:24;100065.31;;;28.29;100.00
9764;BME280;4921;43.214;27.936;2023-08-30T07:39:52;100066.22;;;28.18;100.00
9764;BME280;4921;43.214;27.936;2023-08-30T07:42:19;100066.22;;;28.18;100.00
9764;BME280;4921;43.214;27.936;2023-08-30T07:44:47;100075.13;;;28.35;100.00
9764;BME280;4921;43.214;27.936;2023-08-30T07:47:14;100071.75;;;28.28;100.00
9764;BME280;4921;43.214;27.936;2023-08-30T07:49:41;100076.13;;;28.29;100.00
9764;BME280;4921;43.214;27.936;2023-08-30T07:52:08;100077.50;;;28.31;100.00
9764;BME280;4921;43.214;27.936;2023-08-30T07:54:37;100078.25;;;28.27;100.00
9764;BME280;4921;43.214;27.936;2023-08-30T07:57:04;100078.09;;;28.17;100.00
9764;BME280;4921;43.214;27.936;2023-08-30T07:59:33;100075.97;;;28.19;100.00
9764;BME280;4921;43.214;27.936;2023-08-30T08:02:02;100068.66;;;28.36;100.00
9764;BME280;4921;43.214;27.936;2023-08-30T08:04:29;100070.56;;;28.40;100.00
9764;BME280;4921;43.214;27.936;2023-08-30T08:06:56;100070.72;;;28.29;100.00
9764;BME280;4921;43.214;27.936;2023-08-30T08:09:23;100063.41;;;28.29;100.00
9764;BME280;4921;43.214;27.936;2023-08-30T08:11:50;100064.56;;;28.33;100.00
9764;BME280;4921;43.214;27.936;2023-08-30T08:14:17;100061.19;;;28.05;100.00
9764;BME280;4921;43.214;27.936;2023-08-30T08:16:44;100064.78;;;28.32;100.00
9764;BME280;4921;43.214;27.936;2023-08-30T08:19:12;100064.19;;;28.46;100.00
9764;BME280;4921;43.214;27.936;2023-08-30T08:21:39;100065.41;;;28.39;100.00
9764;BME280;4921;43.214;27.936;2023-08-30T08:24:07;100060.94;;;28.28;100.00
9764;BME280;4921;43.214;27.936;2023-08-30T08:26:33;100054.41;;;28.45;100.00
9764;BME280;4921;43.214;27.936;2023-08-30T08:29:00;100055.03;;;28.52;100.00
9764;BME280;4921;43.214;27.936;2023-08-30T08:31:28;100051.16;;;28.65;100.00
9764;BME280;4921;43.214;27.936;2023-08-30T08:34:07;100044.28;;;28.57;100.00
9764;BME280;4921;43.214;27.936;2023-08-30T08:36:36;100059.78;;;28.62;100.00
9764;BME280;4921;43.214;27.936;2023-08-30T08:39:04;100062.75;;;28.60;100.00
9764;BME280;4921;43.214;27.936;2023-08-30T08:41:35;100062.84;;;28.71;100.00
9764;BME280;4921;43.214;27.936;2023-08-30T08:44:04;100063.47;;;28.56;100.00
9764;BME280;4921;43.214;27.936;2023-08-30T08:46:32;100059.53;;;28.42;100.00
9764;BME280;4921;43.214;27.936;2023-08-30T08:49:01;100045.84;;;28.32;100.00
9764;BME280;4921;43.214;27.936;2023-08-30T08:51:33;100058.88;;;28.56;100.00
9764;BME280;4921;43.214;27.936;2023-08-30T08:54:04;100061.59;;;28.56;100.00
9764;BME280;4921;43.214;27.936;2023-08-30T08:56:31;100052.72;;;28.39;100.00
9764;BME280;4921;43.214;27.936;2023-08-30T08:58:59;100043.31;;;28.25;100.00
9764;BME280;4921;43.214;27.936;2023-08-30T09:01:27;100046.75;;;28.37;100.00
9764;BME280;4921;43.214;27.936;2023-08-30T09:03:54;100054.75;;;28.27;100.00
9764;BME280;4921;43.214;27.936;2023-08-30T09:06:21;100050.66;;;28.25;100.00
9764;BME280;4921;43.214;27.936;2023-08-30T09:08:48;100056.09;;;28.51;100.00
9764;BME280;4921;43.214;27.936;2023-08-30T09:11:17;100052.34;;;28.52;100.00
9764;BME280;4921;43.214;27.936;2023-08-30T09:13:44;100058.06;;;28.56;100.00
9764;BME280;4921;43.214;27.936;2023-08-30T09:16:14;100069.69;;;28.56;100.00
9764;BME280;4921;43.214;27.936;2023-08-30T09:18:41;100059.75;;;28.40;100.00
9764;BME280;4921;43.214;27.936;2023-08-30T09:21:09;100053.53;;;28.40;100.00
9764;BME280;4921;43.214;27.936;2023-08-30T09:23:36;100049.25;;;28.44;100.00
9764;BME280;4921;43.214;27.936;2023-08-30T09:26:04;100053.16;;;28.53;100.00
9764;BME280;4921;43.214;27.936;2023-08-30T09:28:41;100060.97;;;28.71;100.00
9764;BME280;4921;43.214;27.936;2023-08-30T09:31:16;100052.28;;;28.69;100.00
9764;BME280;4921;43.214;27.936;2023-08-30T09:33:45;100060.50;;;28.79;100.00
9764;BME280;4921;43.214;27.936;2023-08-30T09:36:13;100055.25;;;28.67;100.00
9764;BME280;4921;43.214;27.936;2023-08-30T09:38:40;100050.34;;;28.64;100.00
9764;BME280;4921;43.214;27.936;2023-08-30T09:41:07;100047.44;;;28.71;100.00
9764;BME280;4921;43.214;27.936;2023-08-30T09:43:42;100048.94;;;28.62;100.00
9764;BME280;4921;43.214;27.936;2023-08-30T09:46:09;100042.63;;;28.78;100.00
9764;BME280;4921;43.214;27.936;2023-08-30T09:48:37;100042.94;;;28.82;100.00
9764;BME280;4921;43.214;27.936;2023-08-30T09:51:06;100048.34;;;28.82;100.00
9764;BME280;4921;43.214;27.936;2023-08-30T09:53:40;100047.75;;;28.75;100.00
9764;BME280;4921;43.214;27.936;2023-08-30T09:56:08;100049.56;;;28.69;100.00
9764;BME280;4921;43.214;27.936;2023-08-30T09:58:38;100054.44;;;28.94;100.00
9764;BME280;4921;43.214;27.936;2023-08-30T10:01:07;100050.44;;;29.01;100.00
9764;BME280;4921;43.214;27.936;2023-08-30T10:03:34;100048.50;;;28.97;100.00
9764;BME280;4921;43.214;27.936;2023-08-30T10:06:01;100042.19;;;28.86;100.00
9764;BME280;4921;43.214;27.936;2023-08-30T10:08:31;100039.31;;;28.98;100.00
9764;BME280;4921;43.214;27.936;2023-08-30T10:10:58;100036.81;;;29.18;100.00
9764;BME280;4921;43.214;27.936;2023-08-30T10:13:29;100037.41;;;29.20;100.00
9764;BME280;4921;43.214;27.936;2023-08-30T10:16:01;100039.53;;;29.18;100.00
9764;BME280;4921;43.214;27.936;2023-08-30T10:18:32;100045.06;;;29.28;100.00
9764;BME280;4921;43.214;27.936;2023-08-30T10:21:02;100043.19;;;29.33;100.00
9764;BME280;4921;43.214;27.936;2023-08-30T10:23:35;100038.75;;;29.54;100.00
9764;BME280;4921;43.214;27.936;2023-08-30T10:26:03;100040.13;;;29.25;100.00
9764;BME280;4921;43.214;27.936;2023-08-30T10:28:32;100039.72;;;29.38;100.00
9764;BME280;4921;43.214;27.936;2023-08-30T10:31:01;100034.19;;;29.60;100.00
9764;BME280;4921;43.214;27.936;2023-08-30T10:33:28;100046.03;;;29.85;100.00
9764;BME280;4921;43.214;27.936;2023-08-30T10:36:04;100027.66;;;29.92;100.00
9764;BME280;4921;43.214;27.936;2023-08-30T10:38:32;100039.41;;;30.13;100.00
9764;BME280;4921;43.214;27.936;2023-08-30T10:41:07;100033.75;;;30.14;100.00
9764;BME280;4921;43.214;27.936;2023-08-30T10:43:35;100034.94;;;30.34;100.00
9764;BME280;4921;43.214;27.936;2023-08-30T10:46:05;100039.56;;;30.43;100.00
9764;BME280;4921;43.214;27.936;2023-08-30T10:48:37;100037.31;;;30.30;100.00
9764;BME280;4921;43.214;27.936;2023-08-30T10:51:06;100033.59;;;30.36;100.00
9764;BME280;4921;43.214;27.936;2023-08-30T10:53:33;100036.66;;;30.03;100.00
9764;BME280;4921;43.214;27.936;2023-08-30T10:56:07;100034.44;;;29.95;100.00
9764;BME280;4921;43.214;27.936;2023-08-30T10:58:41;100035.59;;;30.04;100.00
9764;BME280;4921;43.214;27.936;2023-08-30T11:01:11;100036.72;;;29.71;100.00
9764;BME280;4921;43.214;27.936;2023-08-30T11:03:40;100026.59;;;29.62;100.00
9764;BME280;4921;43.214;27.936;2023-08-30T11:06:07;100026.69;;;29.72;100.00
9764;BME280;4921;43.214;27.936;2023-08-30T11:08:35;100027.84;;;29.81;100.00
9764;BME280;4921;43.214;27.936;2023-08-30T11:11:05;100018.53;;;29.67;100.00
9764;BME280;4921;43.214;27.936;2023-08-30T11:13:35;100018.41;;;29.88;100.00
9764;BME280;4921;43.214;27.936;2023-08-30T11:16:02;100007.97;;;29.70;100.00
9764;BME280;4921;43.214;27.936;2023-08-30T11:18:36;100014.16;;;30.07;100.00
9764;BME280;4921;43.214;27.936;2023-08-30T11:21:03;100013.97;;;30.24;100.00
9764;BME280;4921;43.214;27.936;2023-08-30T11:23:31;100014.75;;;30.20;100.00
9764;BME280;4921;43.214;27.936;2023-08-30T11:25:58;100020.97;;;30.10;100.00
9764;BME280;4921;43.214;27.936;2023-08-30T11:28:25;100023.09;;;30.03;100.00
9764;BME280;4921;43.214;27.936;2023-08-30T11:30:53;100016.13;;;30.17;100.00
9764;BME280;4921;43.214;27.936;2023-08-30T11:33:20;100009.97;;;30.32;100.00
9764;BME280;4921;43.214;27.936;2023-08-30T11:35:50;99997.91;;;30.07;100.00
9764;BME280;4921;43.214;27.936;2023-08-30T11:38:18;99998.38;;;29.94;100.00
9764;BME280;4921;43.214;27.936;2023-08-30T11:40:49;100001.03;;;29.89;100.00
9764;BME280;4921;43.214;27.936;2023-08-30T11:43:16;100005.25;;;30.12;100.00
9764;BME280;4921;43.214;27.936;2023-08-30T11:45:43;99999.47;;;29.98;100.00
9764;BME280;4921;43.214;27.936;2023-08-30T11:48:11;99998.00;;;29.76;100.00
9764;BME280;4921;43.214;27.936;2023-08-30T11:50:38;99989.75;;;29.66;100.00
9764;BME280;4921;43.214;27.936;2023-08-30T11:53:07;99980.47;;;29.98;100.00
9764;BME280;4921;43.214;27.936;2023-08-30T11:55:34;99984.03;;;29.99;100.00
9764;BME280;4921;43.214;27.936;2023-08-30T11:58:02;99987.16;;;29.81;100.00
9764;BME280;4921;43.214;27.936;2023-08-30T12:00:32;99988.31;;;29.90;100.00
9764;BME280;4921;43.214;27.936;2023-08-30T12:03:00;99979.47;;;29.63;100.00
9764;BME280;4921;43.214;27.936;2023-08-30T12:05:26;99977.19;;;29.50;100.00
9764;BME280;4921;43.214;27.936;2023-08-30T12:07:59;99976.44;;;29.54;100.00
9764;BME280;4921;43.214;27.936;2023-08-30T12:10:28;99982.41;;;29.56;100.00
9764;BME280;4921;43.214;27.936;2023-08-30T12:12:57;99967.91;;;29.40;100.00
9764;BME280;4921;43.214;27.936;2023-08-30T12:15:24;99974.06;;;29.26;100.00
9764;BME280;4921;43.214;27.936;2023-08-30T12:17:54;99963.00;;;29.32;100.00
9764;BME280;4921;43.214;27.936;2023-08-30T12:20:21;99963.91;;;29.11;100.00
9764;BME280;4921;43.214;27.936;2023-08-30T12:22:49;99961.47;;;28.83;100.00
9764;BME280;4921;43.214;27.936;2023-08-30T12:25:17;99959.50;;;29.05;100.00
9764;BME280;4921;43.214;27.936;2023-08-30T12:27:46;99965.38;;;29.24;100.00
9764;BME280;4921;43.214;27.936;2023-08-30T12:30:14;99955.22;;;29.14;100.00
9764;BME280;4921;43.214;27.936;2023-08-30T12:32:42;99957.91;;;29.09;100.00
9764;BME280;4921;43.214;27.936;2023-08-30T12:35:09;99951.22;;;29.17;100.00
9764;BME280;4921;43.214;27.936;2023-08-30T12:37:36;99949.91;;;29.19;100.00
9764;BME280;4921;43.214;27.936;2023-08-30T12:40:04;99941.50;;;29.21;100.00
9764;BME280;4921;43.214;27.936;2023-08-30T12:42:31;99944.03;;;29.32;100.00
9764;BME280;4921;43.214;27.936;2023-08-30T12:45:00;99942.16;;;29.38;100.00
9764;BME280;4921;43.214;27.936;2023-08-30T12:47:28;99946.44;;;29.29;100.00
9764;BME280;4921;43.214;27.936;2023-08-30T12:49:55;99943.81;;;29.39;100.00
9764;BME280;4921;43.214;27.936;2023-08-30T12:52:22;99948.41;;;29.07;100.00
9764;BME280;4921;43.214;27.936;2023-08-30T12:54:50;99947.59;;;29.06;100.00
9764;BME280;4921;43.214;27.936;2023-08-30T12:57:19;99946.56;;;29.12;100.00
9764;BME280;4921;43.214;27.936;2023-08-30T12:59:46;99950.19;;;29.23;100.00
9764;BME280;4921;43.214;27.936;2023-08-30T13:02:15;99948.66;;;29.05;100.00